Terminal Aerodrome Forecast
Issued by NWS Tampa Bay Area, FL

Home | Current Version | Previous Version | Text Only | Print | Product List | Glossary On
Versions: 1 2 3 4 5 6 7 8 9 10 11 12 13 14
751
FTUS42 KTBW 051314 AAB
TAFFMY
TAF AMD
KFMY 051314Z 0513/0612 12003KT P6SM SCT005 SCT250
      TEMPO 0513/0514 5SM BR BKN003
     FM051500 16012G18KT P6SM SCT020 BKN050 OVC100
     FM052000 18012G22KT P6SM VCSH SCT025 BKN050 OVC100
     FM060100 15006KT P6SM VCSH SCT025 OVC050
     FM060600 16008KT 5SM -RA BR VCTS SCT015CB OVC025=

USA.gov is the U.S. government's official web portal to all federal, state and local government web resources and services.